Time;durP1;ratioP1;P1;durP2;ratioP2;P2;SDS_P1;SDS_P2;PMS_P1;PMS_P2;Temp;Humidity;BMP_temperature;BMP_pressure;BME280_temperature;BME280_humidity;BME280_pressure;Samples;Min_cycle;Max_cycle;Signal;HPM_P1;HPM_P2
2021/09/09 00:00:16;;;;;;;7.90;6.00;;;;;;;15.69;94.25;95660.22;5031288;28;24499;-76
2021/09/09 00:02:42;;;;;;;8.67;6.30;;;;;;;15.65;94.21;95664.06;5032302;28;24396;-76
2021/09/09 00:05:08;;;;;;;7.93;6.40;;;;;;;15.66;94.35;95662.28;5031994;28;24486;-76
2021/09/09 00:07:34;;;;;;;11.30;6.50;;;;;;;15.61;94.65;95659.19;5030780;28;24449;-76
2021/09/09 00:10:00;;;;;;;7.07;6.38;;;;;;;15.68;92.59;95655.97;5047285;28;24420;-75
2021/09/09 00:12:25;;;;;;;12.23;7.20;;;;;;;15.58;94.07;95659.47;5031892;28;24424;-76
2021/09/09 00:14:51;;;;;;;9.03;6.70;;;;;;;15.52;94.35;95662.56;5047065;28;24775;-76
2021/09/09 00:17:16;;;;;;;8.55;6.53;;;;;;;15.47;94.69;95658.56;5031568;28;24392;-76
2021/09/09 00:19:42;;;;;;;7.77;6.33;;;;;;;15.58;91.32;95651.63;5031865;28;24960;-76
2021/09/09 00:22:07;;;;;;;9.43;6.37;;;;;;;15.45;89.16;95657.88;5030578;28;24412;-75
2021/09/09 00:24:33;;;;;;;9.53;5.90;;;;;;;15.29;92.37;95654.06;5031729;28;24813;-76
2021/09/09 00:26:58;;;;;;;12.97;7.00;;;;;;;15.21;92.24;95652.09;5031436;28;24451;-76
2021/09/09 00:29:23;;;;;;;9.23;6.80;;;;;;;15.15;92.92;95653.41;5031537;28;25007;-75
2021/09/09 00:31:49;;;;;;;7.28;6.35;;;;;;;15.21;93.18;95650.31;5031599;28;25020;-76
2021/09/09 00:34:15;;;;;;;8.45;7.07;;;;;;;15.05;94.56;95651.69;5031445;28;24416;-76
2021/09/09 00:36:40;;;;;;;12.88;6.97;;;;;;;14.91;96.76;95655.47;5046650;28;24762;-76
2021/09/09 00:39:05;;;;;;;10.67;7.70;;;;;;;14.90;96.92;95656.38;5030274;28;24976;-76
2021/09/09 00:41:31;;;;;;;12.43;7.83;;;;;;;14.89;98.13;95654.75;5030071;28;24487;-76
2021/09/09 00:43:57;;;;;;;11.20;7.95;;;;;;;14.93;97.51;95653.53;5031053;28;24546;-76
2021/09/09 00:46:23;;;;;;;10.80;7.20;;;;;;;14.93;97.95;95649.16;5046375;28;24400;-76
2021/09/09 00:48:49;;;;;;;10.43;7.93;;;;;;;15.04;97.60;95645.66;5031197;28;24455;-76
2021/09/09 00:51:15;;;;;;;11.57;8.47;;;;;;;15.10;97.01;95642.56;5029912;28;24458;-76
2021/09/09 00:53:42;;;;;;;15.10;9.10;;;;;;;15.01;97.76;95636.28;5031044;28;24420;-76
2021/09/09 00:56:08;;;;;;;11.68;8.45;;;;;;;14.98;98.62;95638.31;5030876;28;24813;-75
2021/09/09 00:58:35;;;;;;;10.82;8.80;;;;;;;14.98;98.34;95636.56;5013130;28;25004;-76
2021/09/09 01:01:00;;;;;;;9.30;7.32;;;;;;;14.99;98.45;95638.22;5029732;28;24751;-75
2021/09/09 01:03:26;;;;;;;12.03;7.60;;;;;;;14.98;98.39;95640.94;5030999;28;24407;-76
2021/09/09 01:05:51;;;;;;;12.93;8.20;;;;;;;15.04;97.63;95637.00;5030785;28;24872;-76
2021/09/09 01:08:16;;;;;;;13.60;8.90;;;;;;;15.04;97.11;95635.22;5028884;28;24395;-76
2021/09/09 01:10:42;;;;;;;12.43;8.05;;;;;;;14.92;98.37;95633.63;5030757;28;24519;-76
2021/09/09 01:13:11;;;;;;;9.77;7.97;;;;;;;14.91;98.27;95629.38;5029378;28;24991;-77
2021/09/09 01:15:41;;;;;;;10.85;7.47;;;;;;;14.91;98.36;95626.78;5030481;28;24462;-76
2021/09/09 01:18:13;;;;;;;10.88;7.38;;;;;;;14.90;98.52;95622.50;5030732;28;24400;-76
2021/09/09 01:20:40;;;;;;;9.35;7.10;;;;;;;14.94;98.79;95623.88;5031182;28;24419;-76
2021/09/09 01:23:06;;;;;;;9.35;6.47;;;;;;;14.96;98.55;95620.22;5020693;28;24423;-76
2021/09/09 01:25:32;;;;;;;9.10;6.75;;;;;;;14.98;98.43;95620.94;5010595;28;25153;-75
2021/09/09 01:27:57;;;;;;;8.73;6.35;;;;;;;14.99;98.33;95619.16;5010846;28;24424;-76
2021/09/09 01:30:23;;;;;;;7.27;6.20;;;;;;;14.96;98.66;95617.59;5012764;28;24420;-76
2021/09/09 01:32:48;;;;;;;8.53;6.70;;;;;;;14.98;98.68;95614.84;5028760;28;24467;-76
2021/09/09 01:35:14;;;;;;;9.07;6.57;;;;;;;15.03;97.00;95611.88;5011134;28;24436;-76
2021/09/09 01:37:39;;;;;;;7.43;6.10;;;;;;;14.93;98.15;95617.84;5010917;28;24759;-75
2021/09/09 01:40:05;;;;;;;11.47;6.90;;;;;;;14.90;99.00;95619.88;5010718;28;24396;-75
2021/09/09 01:42:30;;;;;;;10.15;6.50;;;;;;;14.88;98.54;95617.41;5010584;28;25077;-77
2021/09/09 01:44:56;;;;;;;8.97;6.30;;;;;;;14.89;98.17;95619.06;5009239;28;24823;-75
2021/09/09 01:47:21;;;;;;;8.70;7.00;;;;;;;14.92;98.15;95612.78;5025560;28;24405;-76
2021/09/09 01:49:47;;;;;;;10.23;6.60;;;;;;;14.88;98.41;95612.19;5010638;28;24503;-76
2021/09/09 01:52:12;;;;;;;6.77;6.10;;;;;;;14.90;98.22;95617.28;5010130;28;24447;-75
2021/09/09 01:54:38;;;;;;;7.63;6.77;;;;;;;14.94;97.14;95613.47;5025336;28;24447;-76
2021/09/09 01:57:03;;;;;;;7.47;6.38;;;;;;;14.85;96.66;95611.63;5010649;28;25103;-77
2021/09/09 01:59:29;;;;;;;7.32;6.53;;;;;;;14.73;97.59;95611.69;5025652;28;24483;-76
2021/09/09 02:01:54;;;;;;;7.30;6.45;;;;;;;14.76;96.90;95605.41;5025680;28;24423;-76
2021/09/09 02:04:20;;;;;;;8.67;6.57;;;;;;;14.79;95.97;95605.13;5010430;28;24420;-76
2021/09/09 02:06:45;;;;;;;10.23;6.80;;;;;;;14.60;97.19;95610.19;5010215;28;24439;-76
2021/09/09 02:09:10;;;;;;;8.70;6.63;;;;;;;14.64;95.78;95601.16;5010323;28;24524;-75
2021/09/09 02:11:36;;;;;;;10.17;6.80;;;;;;;14.51;96.68;95601.34;5010324;28;24426;-76
2021/09/09 02:14:01;;;;;;;7.70;6.70;;;;;;;14.32;97.65;95595.94;5010340;28;24416;-76
2021/09/09 02:16:28;;;;;;;8.73;6.60;;;;;;;14.19;98.99;95607.31;5013384;28;24489;-76
2021/09/09 02:18:54;;;;;;;8.00;6.32;;;;;;;14.20;99.27;95605.53;5030541;28;24449;-76
2021/09/09 02:21:19;;;;;;;9.63;7.43;;;;;;;14.20;99.95;95609.00;5034040;28;24400;-76
2021/09/09 02:23:44;;;;;;;7.70;6.85;;;;;;;14.18;100.00;95602.25;5033805;28;24451;-76
2021/09/09 02:26:10;;;;;;;10.83;7.20;;;;;;;14.17;100.00;95596.22;5032373;28;24761;-76
2021/09/09 02:28:35;;;;;;;8.10;7.30;;;;;;;14.15;100.00;95602.50;5033906;28;24502;-76
2021/09/09 02:31:01;;;;;;;9.23;6.90;;;;;;;14.13;100.00;95597.41;5033539;28;24470;-76
2021/09/09 02:33:26;;;;;;;8.23;6.72;;;;;;;14.09;100.00;95603.81;5033652;28;24506;-76
2021/09/09 02:35:51;;;;;;;8.50;7.20;;;;;;;14.04;100.00;95604.16;5032135;28;24415;-75
2021/09/09 02:38:17;;;;;;;10.53;6.87;;;;;;;14.03;100.00;95599.09;5033760;28;24948;-76
2021/09/09 02:40:42;;;;;;;7.13;6.43;;;;;;;14.03;100.00;95604.28;5033618;28;24388;-75
2021/09/09 02:43:07;;;;;;;7.33;6.53;;;;;;;14.08;100.00;95599.53;5033638;28;24439;-75
2021/09/09 02:45:33;;;;;;;8.50;6.87;;;;;;;14.13;100.00;95601.81;5033891;28;24430;-76
2021/09/09 02:48:02;;;;;;;9.77;6.47;;;;;;;14.14;100.00;95598.25;5033500;28;24505;-76
2021/09/09 02:50:27;;;;;;;10.27;7.07;;;;;;;14.10;100.00;95597.66;5033407;28;24514;-76
2021/09/09 02:52:53;;;;;;;8.70;7.00;;;;;;;14.04;100.00;95603.34;5032090;28;24427;-76
2021/09/09 02:55:18;;;;;;;10.50;7.60;;;;;;;13.93;100.00;95595.53;5034988;28;24443;-76
2021/09/09 02:57:43;;;;;;;10.13;7.30;;;;;;;13.93;100.00;95604.19;5023483;28;24396;-76
2021/09/09 03:00:09;;;;;;;10.77;7.77;;;;;;;13.96;100.00;95595.31;5037243;28;24930;-76
2021/09/09 03:02:35;;;;;;;8.45;7.55;;;;;;;14.07;100.00;95592.69;5033699;28;24446;-76
2021/09/09 03:05:01;;;;;;;7.73;6.80;;;;;;;14.13;100.00;95597.41;5033442;28;24412;-76
2021/09/09 03:07:26;;;;;;;7.57;6.73;;;;;;;14.17;100.00;95590.19;5032948;28;24410;-76
2021/09/09 03:09:51;;;;;;;9.70;7.20;;;;;;;14.21;100.00;95589.00;5033351;28;24423;-76
2021/09/09 03:12:17;;;;;;;10.32;7.85;;;;;;;14.18;100.00;95584.03;5033130;28;24404;-76
2021/09/09 03:14:42;;;;;;;8.70;7.73;;;;;;;14.03;100.00;95584.28;5033109;28;24494;-76
2021/09/09 03:17:08;;;;;;;9.63;6.97;;;;;;;13.83;100.00;95590.25;5032859;28;24488;-76
2021/09/09 03:19:33;;;;;;;10.87;7.90;;;;;;;13.59;100.00;95584.34;5033107;28;24494;-76
2021/09/09 03:21:58;;;;;;;10.85;7.55;;;;;;;13.52;100.00;95579.63;5031782;28;24827;-76
2021/09/09 03:24:24;;;;;;;11.27;8.27;;;;;;;13.53;100.00;95581.28;5032716;28;24949;-76
2021/09/09 03:26:50;;;;;;;11.13;7.33;;;;;;;13.70;100.00;95577.34;5031310;28;24408;-76
2021/09/09 03:29:16;;;;;;;7.93;7.03;;;;;;;13.81;100.00;95573.91;5031536;28;24411;-76
2021/09/09 03:31:41;;;;;;;8.85;6.95;;;;;;;13.87;100.00;95573.44;5031790;28;24427;-76
2021/09/09 03:34:07;;;;;;;11.15;7.05;;;;;;;13.92;100.00;95580.88;5031311;28;24428;-76
2021/09/09 03:36:32;;;;;;;8.27;7.17;;;;;;;13.98;100.00;95578.63;5032392;28;24404;-76
2021/09/09 03:38:57;;;;;;;8.73;7.50;;;;;;;14.00;100.00;95576.72;5032389;28;24462;-76
2021/09/09 03:41:23;;;;;;;10.32;6.53;;;;;;;14.04;100.00;95572.09;5031307;28;24439;-76
2021/09/09 03:43:48;;;;;;;9.83;7.47;;;;;;;13.98;100.00;95575.19;5032580;28;25029;-76
2021/09/09 03:46:14;;;;;;;7.90;7.10;;;;;;;13.87;100.00;95572.59;5031066;28;24412;-76
2021/09/09 03:48:39;;;;;;;9.80;7.40;;;;;;;13.60;100.00;95566.00;5032333;28;24487;-76
2021/09/09 03:51:04;;;;;;;10.27;7.87;;;;;;;13.49;100.00;95560.81;5014637;28;24412;-76
2021/09/09 03:53:30;;;;;;;9.40;7.00;;;;;;;13.46;100.00;95567.09;5032034;28;24450;-76
2021/09/09 03:55:55;;;;;;;8.37;7.37;;;;;;;13.61;100.00;95564.22;5030699;28;24697;-76
2021/09/09 03:58:20;;;;;;;10.00;7.13;;;;;;;13.71;100.00;95566.00;5032275;28;24747;-76
2021/09/09 04:00:46;;;;;;;10.33;7.23;;;;;;;13.77;100.00;95567.31;5032219;28;24499;-76
2021/09/09 04:03:11;;;;;;;8.95;6.75;;;;;;;13.87;100.00;95570.00;5032116;28;24953;-76
2021/09/09 04:05:36;;;;;;;6.93;6.23;;;;;;;13.88;100.00;95561.25;5030514;28;24427;-76
2021/09/09 04:08:02;;;;;;;8.87;6.93;;;;;;;13.84;100.00;95565.88;5030681;28;24507;-76
2021/09/09 04:10:27;;;;;;;12.55;6.97;;;;;;;13.84;100.00;95570.25;5031855;28;24466;-76
2021/09/09 04:12:52;;;;;;;8.20;7.00;;;;;;;13.87;100.00;95564.78;5031830;28;24392;-76
2021/09/09 04:15:18;;;;;;;8.60;6.90;;;;;;;13.91;100.00;95566.22;5031627;28;24991;-76
2021/09/09 04:17:43;;;;;;;7.53;6.53;;;;;;;13.93;100.00;95572.13;5032344;28;24400;-80
2021/09/09 04:20:09;;;;;;;6.80;6.20;;;;;;;13.86;100.00;95563.13;5018457;28;24559;-77
2021/09/09 04:22:35;;;;;;;11.70;7.10;;;;;;;13.84;100.00;95567.66;5033326;28;24420;-78
2021/09/09 04:25:02;;;;;;;8.02;6.93;;;;;;;13.91;100.00;95566.22;5035186;28;24410;-76
2021/09/09 04:27:30;;;;;;;7.32;6.53;;;;;;;13.93;100.00;95567.72;5031725;28;24403;-78
2021/09/09 04:29:56;;;;;;;7.80;7.03;;;;;;;13.92;100.00;95566.09;5032022;28;24396;-77
2021/09/09 04:32:21;;;;;;;7.60;6.80;;;;;;;13.95;100.00;95572.84;5030925;28;24504;-77
2021/09/09 04:34:47;;;;;;;10.55;7.45;;;;;;;13.88;100.00;95572.50;5032879;28;24415;-76
2021/09/09 04:37:12;;;;;;;9.50;7.20;;;;;;;13.79;100.00;95571.44;5027529;28;24514;-77
2021/09/09 04:39:37;;;;;;;10.40;7.70;;;;;;;13.83;100.00;95565.97;5030124;28;24937;-76
2021/09/09 04:42:03;;;;;;;8.70;7.47;;;;;;;13.87;100.00;95570.00;5029930;28;24538;-76
2021/09/09 04:44:28;;;;;;;9.88;7.45;;;;;;;13.89;100.00;95566.31;5031336;28;24408;-76
2021/09/09 04:46:53;;;;;;;9.07;7.30;;;;;;;13.92;100.00;95573.06;5030880;28;24758;-76
2021/09/09 04:49:19;;;;;;;7.90;6.93;;;;;;;13.94;100.00;95569.41;5021393;28;24411;-75
2021/09/09 04:51:44;;;;;;;9.43;7.38;;;;;;;13.96;100.00;95575.31;5032466;28;24504;-83
2021/09/09 04:54:10;;;;;;;8.47;6.57;;;;;;;13.97;100.00;95570.91;5012259;28;24428;-75
2021/09/09 04:56:35;;;;;;;11.93;7.23;;;;;;;13.98;100.00;95570.00;5030879;28;24396;-74
2021/09/09 04:59:00;;;;;;;7.93;6.70;;;;;;;13.96;100.00;95571.88;5029901;28;24404;-75
2021/09/09 05:01:26;;;;;;;8.50;6.73;;;;;;;13.99;100.00;95569.03;5029878;28;24408;-74
2021/09/09 05:03:51;;;;;;;8.00;7.13;;;;;;;13.90;100.00;95569.75;5031153;28;24402;-75
2021/09/09 05:06:16;;;;;;;9.90;7.13;;;;;;;13.67;100.00;95574.16;5030859;28;24439;-75
2021/09/09 05:08:42;;;;;;;9.33;7.63;;;;;;;13.71;100.00;95576.41;5029428;28;24438;-75
2021/09/09 05:11:09;;;;;;;7.73;6.90;;;;;;;13.83;100.00;95572.03;5029562;28;24778;-75
2021/09/09 05:13:34;;;;;;;7.83;7.03;;;;;;;13.81;100.00;95576.53;5029643;28;24420;-75
2021/09/09 05:15:59;;;;;;;9.43;7.10;;;;;;;13.61;100.00;95582.44;5030708;28;24407;-75
2021/09/09 05:18:25;;;;;;;9.03;7.70;;;;;;;13.74;100.00;95575.34;5029769;28;24965;-75
2021/09/09 05:20:50;;;;;;;8.35;6.90;;;;;;;13.88;100.00;95577.69;5030838;28;24512;-75
2021/09/09 05:23:15;;;;;;;10.17;6.97;;;;;;;13.99;100.00;95582.88;5029336;28;24474;-75
2021/09/09 05:25:41;;;;;;;8.20;6.60;;;;;;;14.09;100.00;95579.53;5031296;28;24542;-75
2021/09/09 05:28:07;;;;;;;8.10;7.28;;;;;;;14.18;100.00;95579.63;5029552;28;24404;-75
2021/09/09 05:30:32;;;;;;;7.97;7.17;;;;;;;14.18;100.00;95578.81;5013665;28;24996;-75
2021/09/09 05:32:57;;;;;;;7.90;6.97;;;;;;;14.15;100.00;95579.88;5010958;28;25072;-75
2021/09/09 05:35:23;;;;;;;12.00;8.27;;;;;;;13.86;100.00;95587.38;5009539;28;24407;-74
2021/09/09 05:37:48;;;;;;;10.25;8.60;;;;;;;13.79;100.00;95591.41;5009516;28;24411;-75
2021/09/09 05:40:13;;;;;;;10.17;7.53;;;;;;;13.91;100.00;95587.88;5010989;28;24392;-75
2021/09/09 05:42:39;;;;;;;8.60;6.90;;;;;;;14.08;100.00;95590.91;5010888;28;24555;-75
2021/09/09 05:45:05;;;;;;;9.55;7.40;;;;;;;14.22;100.00;95590.63;5010657;28;24435;-75
2021/09/09 05:47:30;;;;;;;7.93;6.97;;;;;;;14.37;100.00;95601.59;5016629;28;24435;-75
2021/09/09 05:49:56;;;;;;;8.68;7.30;;;;;;;14.45;100.00;95605.22;5029327;28;24836;-75
2021/09/09 05:52:21;;;;;;;7.93;7.13;;;;;;;14.52;100.00;95597.78;5031728;28;24490;-77
2021/09/09 05:54:46;;;;;;;8.37;7.17;;;;;;;14.57;100.00;95597.41;5033987;28;24450;-76
2021/09/09 05:57:12;;;;;;;7.93;7.13;;;;;;;14.59;100.00;95595.50;5050219;28;24668;-76
2021/09/09 05:59:37;;;;;;;8.88;7.05;;;;;;;14.57;100.00;95595.63;5055438;28;24392;-75
2021/09/09 06:02:06;;;;;;;9.67;7.10;;;;;;;14.57;100.00;95598.22;5047030;28;24449;-75
2021/09/09 06:04:34;;;;;;;11.95;7.70;;;;;;;14.62;100.00;95605.69;5045368;28;24465;-77
2021/09/09 06:07:00;;;;;;;9.15;7.15;;;;;;;14.59;100.00;95605.94;5038530;28;24462;-77
2021/09/09 06:09:25;;;;;;;7.80;7.00;;;;;;;14.59;100.00;95608.53;5041784;28;24439;-77
2021/09/09 06:11:50;;;;;;;9.30;7.07;;;;;;;14.60;100.00;95600.59;5030109;28;24594;-77
2021/09/09 06:14:16;;;;;;;13.27;7.43;;;;;;;14.56;100.00;95612.22;5031885;28;24412;-78
2021/09/09 06:16:41;;;;;;;13.63;7.47;;;;;;;14.55;100.00;95607.97;5030251;28;24508;-77
2021/09/09 06:19:06;;;;;;;8.20;7.22;;;;;;;14.61;100.00;95607.47;5030980;28;24471;-78
2021/09/09 06:21:32;;;;;;;14.07;7.83;;;;;;;14.71;100.00;95620.56;5033646;28;24395;-77
2021/09/09 06:23:57;;;;;;;10.10;7.80;;;;;;;14.58;100.00;95612.94;5040710;28;24412;-78
2021/09/09 06:26:23;;;;;;;10.10;6.93;;;;;;;14.67;100.00;95614.78;5029901;28;25009;-77
2021/09/09 06:28:48;;;;;;;10.27;7.97;;;;;;;14.81;100.00;95616.25;5025791;28;24404;-76
2021/09/09 06:31:14;;;;;;;11.90;7.90;;;;;;;14.92;100.00;95613.59;5029436;28;24415;-74
2021/09/09 06:33:39;;;;;;;8.50;7.23;;;;;;;15.01;100.00;95615.44;5029959;28;24431;-76
2021/09/09 06:36:05;;;;;;;9.13;7.07;;;;;;;15.10;100.00;95616.47;5029641;28;24412;-75
2021/09/09 06:38:30;;;;;;;10.30;7.18;;;;;;;15.09;100.00;95616.59;5028907;28;24418;-75
2021/09/09 06:40:55;;;;;;;13.18;7.55;;;;;;;15.16;100.00;95615.13;5029371;28;24792;-76
2021/09/09 06:43:21;;;;;;;9.67;7.27;;;;;;;15.28;100.00;95618.47;5011520;28;24435;-76
2021/09/09 06:45:46;;;;;;;13.07;6.93;;;;;;;15.48;99.15;95617.63;5028284;28;24420;-76
2021/09/09 06:48:12;;;;;;;9.38;7.07;;;;;;;15.59;98.90;95620.16;5028392;28;24499;-78
2021/09/09 06:50:38;;;;;;;10.67;7.60;;;;;;;15.66;98.61;95612.69;5012426;28;24814;-78
2021/09/09 06:53:04;;;;;;;8.40;7.28;;;;;;;15.72;97.91;95612.13;5028816;28;24450;-77
2021/09/09 06:55:29;;;;;;;9.43;7.40;;;;;;;15.68;100.00;95603.75;5025884;28;24412;-77
2021/09/09 06:57:54;;;;;;;11.20;7.27;;;;;;;15.88;98.77;95603.81;5013358;28;24763;-78
2021/09/09 07:00:20;;;;;;;9.23;7.33;;;;;;;16.18;96.83;95598.53;5013237;28;24910;-78
2021/09/09 07:02:45;;;;;;;9.80;7.17;;;;;;;16.26;96.19;95607.47;5010303;28;24392;-78
2021/09/09 07:05:11;;;;;;;8.85;7.45;;;;;;;16.18;95.90;95601.16;5025545;28;24767;-78
2021/09/09 07:07:38;;;;;;;8.82;7.20;;;;;;;16.34;96.24;95599.78;5012099;28;24499;-78
2021/09/09 07:10:04;;;;;;;12.73;6.90;;;;;;;16.44;95.44;95598.84;5013606;28;24395;-78
2021/09/09 07:12:29;;;;;;;11.33;6.80;;;;;;;16.44;96.00;95608.47;5013615;28;24444;-77
2021/09/09 07:14:54;;;;;;;11.27;7.43;;;;;;;16.42;95.08;95611.19;5028786;28;24424;-77
2021/09/09 07:17:20;;;;;;;8.73;7.07;;;;;;;16.18;97.21;95610.78;5017852;28;24459;-78
2021/09/09 07:19:45;;;;;;;10.63;6.73;;;;;;;16.39;95.42;95602.84;5032027;28;24400;-76
2021/09/09 07:22:10;;;;;;;9.30;7.13;;;;;;;16.63;94.34;95602.44;5032939;28;24423;-77
2021/09/09 07:24:36;;;;;;;13.33;7.23;;;;;;;16.69;93.44;95605.31;5015241;28;24808;-77
2021/09/09 07:27:01;;;;;;;9.45;7.10;;;;;;;16.84;93.17;95610.19;5031701;28;24403;-77
2021/09/09 07:29:26;;;;;;;7.67;6.90;;;;;;;17.06;91.93;95604.66;5032991;28;24474;-77
2021/09/09 07:31:52;;;;;;;8.97;6.83;;;;;;;17.29;90.50;95612.19;5034035;28;24449;-77
2021/09/09 07:34:17;;;;;;;8.63;7.53;;;;;;;17.59;89.30;95617.19;5031644;28;24424;-77
2021/09/09 07:36:43;;;;;;;7.90;6.80;;;;;;;17.84;87.65;95613.13;5031522;28;24595;-78
2021/09/09 07:39:08;;;;;;;8.23;6.82;;;;;;;18.09;87.02;95613.41;5033125;28;24471;-77
2021/09/09 07:41:34;;;;;;;7.47;6.67;;;;;;;18.32;87.05;95616.47;5032967;28;24388;-77
2021/09/09 07:44:00;;;;;;;7.83;6.90;;;;;;;18.46;84.63;95622.97;5031723;28;24412;-77
2021/09/09 07:46:26;;;;;;;8.70;6.87;;;;;;;18.92;83.38;95624.63;5032574;28;24494;-76
2021/09/09 07:48:52;;;;;;;7.32;6.50;;;;;;;19.01;81.23;95621.06;5031696;28;24495;-77
2021/09/09 07:51:18;;;;;;;7.07;6.38;;;;;;;19.28;80.38;95630.66;5032532;28;24443;-76
2021/09/09 07:53:45;;;;;;;8.07;6.55;;;;;;;19.36;80.18;95629.06;5032476;28;24420;-78
2021/09/09 07:56:11;;;;;;;8.30;6.38;;;;;;;19.51;80.37;95625.69;5032343;28;24400;-77
2021/09/09 07:58:37;;;;;;;7.45;6.13;;;;;;;19.98;78.67;95621.84;5032430;28;24498;-78
2021/09/09 08:01:02;;;;;;;7.75;6.55;;;;;;;20.07;77.16;95634.06;5031707;28;24754;-78
2021/09/09 08:03:28;;;;;;;11.40;6.53;;;;;;;20.00;76.72;95633.88;5032759;28;24408;-74
2021/09/09 08:05:54;;;;;;;7.00;5.83;;;;;;;20.38;76.25;95630.88;5032414;28;24475;-78
2021/09/09 08:08:19;;;;;;;8.63;6.28;;;;;;;20.50;75.74;95619.91;5032362;28;24826;-77
2021/09/09 08:10:45;;;;;;;8.45;6.47;;;;;;;20.51;76.17;95621.59;5032172;28;24424;-78
2021/09/09 08:13:10;;;;;;;7.37;6.07;;;;;;;20.71;75.60;95621.28;5031072;28;24424;-76
2021/09/09 08:15:37;;;;;;;9.00;6.40;;;;;;;20.77;74.66;95628.53;5034221;28;24416;-78
2021/09/09 08:18:03;;;;;;;6.95;5.93;;;;;;;21.05;74.09;95629.03;5033220;28;24503;-78
2021/09/09 08:20:28;;;;;;;7.88;6.15;;;;;;;21.30;72.59;95623.78;5033888;28;24511;-78
2021/09/09 08:22:53;;;;;;;8.90;6.37;;;;;;;21.58;71.07;95632.16;5033992;28;24952;-78
2021/09/09 08:25:19;;;;;;;13.27;6.03;;;;;;;21.60;70.42;95627.56;5035062;28;24435;-78
2021/09/09 08:27:44;;;;;;;7.63;5.80;;;;;;;21.85;70.99;95625.69;5033956;28;24432;-78
2021/09/09 08:30:09;;;;;;;7.20;5.63;;;;;;;22.02;69.67;95631.72;5016019;28;24473;-78
2021/09/09 08:32:35;;;;;;;8.70;5.95;;;;;;;22.28;69.22;95628.84;5034045;28;24384;-78
2021/09/09 08:35:00;;;;;;;9.43;5.57;;;;;;;22.42;68.10;95626.28;5033996;28;25000;-78
2021/09/09 08:37:26;;;;;;;7.03;5.50;;;;;;;22.49;66.68;95633.53;5031963;28;24466;-78
2021/09/09 08:39:51;;;;;;;7.07;5.50;;;;;;;22.74;66.36;95626.28;5034337;28;24392;-78
2021/09/09 08:42:18;;;;;;;6.53;5.50;;;;;;;22.90;63.49;95634.91;5033178;28;24430;-77
2021/09/09 08:44:44;;;;;;;5.88;4.93;;;;;;;22.88;62.19;95636.91;5032218;28;24473;-78
2021/09/09 08:47:11;;;;;;;7.80;5.38;;;;;;;23.23;60.63;95644.44;5032588;28;24416;-78
2021/09/09 08:49:37;;;;;;;7.32;4.93;;;;;;;23.28;59.91;95645.53;5031675;28;24415;-77
2021/09/09 08:52:04;;;;;;;6.80;4.65;;;;;;;23.21;58.64;95649.88;5031369;28;24428;-77
2021/09/09 08:54:30;;;;;;;6.10;4.50;;;;;;;23.41;60.30;95661.63;5013512;28;24650;-77
2021/09/09 08:56:57;;;;;;;6.30;4.80;;;;;;;23.47;58.14;95654.78;5031576;28;24384;-72
2021/09/09 08:59:22;;;;;;;8.50;4.57;;;;;;;23.59;58.08;95649.91;5037271;28;24415;-77
2021/09/09 09:02:01;;;;;;;8.10;5.10;;;;;;;23.77;58.26;95657.53;5038396;28;24392;-78
2021/09/09 09:04:27;;;;;;;10.43;4.63;;;;;;;23.81;57.22;95646.41;5032835;28;24613;-78
2021/09/09 09:06:52;;;;;;;5.78;4.40;;;;;;;23.76;56.79;95655.88;5038147;28;24412;-78
2021/09/09 09:09:20;;;;;;;5.37;4.40;;;;;;;23.84;57.37;95650.50;5036516;28;24454;-75
2021/09/09 09:11:50;;;;;;;4.75;4.25;;;;;;;23.96;56.51;95661.47;5029912;28;24455;-75
2021/09/09 09:14:21;;;;;;;5.83;4.40;;;;;;;23.95;56.86;95668.56;5009935;28;25141;-75
2021/09/09 09:16:49;;;;;;;5.88;4.40;;;;;;;23.72;56.78;95657.25;5020623;28;24796;-75
2021/09/09 09:19:16;;;;;;;7.20;4.50;;;;;;;23.64;57.25;95652.84;5026812;28;24465;-75
2021/09/09 09:21:46;;;;;;;8.57;4.10;;;;;;;23.37;58.04;95660.34;5025762;28;24750;-75
2021/09/09 09:24:19;;;;;;;5.00;4.20;;;;;;;23.31;58.45;95655.75;5029487;28;25316;-75
2021/09/09 09:27:08;;;;;;;8.02;4.13;;;;;;;23.16;59.27;95661.00;5030536;28;24407;-75
2021/09/09 09:29:33;;;;;;;6.85;4.15;;;;;;;23.07;59.22;95664.72;5024776;28;24404;-76
2021/09/09 09:32:10;;;;;;;6.73;4.30;;;;;;;23.01;59.26;95669.88;5019317;28;24786;-76
2021/09/09 09:34:36;;;;;;;6.43;4.57;;;;;;;23.05;59.72;95664.06;5030647;28;24929;-76
2021/09/09 09:37:01;;;;;;;4.10;3.70;;;;;;;23.02;60.18;95660.94;5030363;28;24462;-76
2021/09/09 09:39:27;;;;;;;7.15;4.18;;;;;;;23.25;59.82;95658.28;5029311;28;24423;-77
2021/09/09 09:41:52;;;;;;;6.20;4.00;;;;;;;23.53;58.62;95667.31;5030571;28;24451;-76
2021/09/09 09:44:18;;;;;;;7.57;4.50;;;;;;;23.78;58.19;95659.19;5030510;28;24499;-75
2021/09/09 09:46:43;;;;;;;8.57;4.03;;;;;;;23.93;58.18;95669.78;5028701;28;24406;-77
2021/09/09 09:49:28;;;;;;;4.93;3.70;;;;;;;23.96;57.66;95672.06;5030533;28;24400;-74
2021/09/09 09:51:56;;;;;;;5.85;4.00;;;;;;;24.07;57.92;95671.63;5030218;28;24460;-74
2021/09/09 09:54:24;;;;;;;6.10;4.10;;;;;;;23.89;58.49;95664.03;5030345;28;25047;-75
2021/09/09 09:56:50;;;;;;;8.40;4.10;;;;;;;23.78;58.15;95673.22;5030131;28;24988;-75
2021/09/09 09:59:17;;;;;;;6.28;4.00;;;;;;;23.72;58.12;95675.75;5030380;28;24439;-74
2021/09/09 10:01:43;;;;;;;6.53;4.18;;;;;;;23.97;58.16;95674.50;5029628;28;24479;-75
2021/09/09 10:04:11;;;;;;;8.77;4.17;;;;;;;23.98;57.78;95676.16;5021480;28;24427;-75
2021/09/09 10:06:36;;;;;;;11.25;5.00;;;;;;;23.98;57.66;95680.63;5018319;28;24573;-75
2021/09/09 10:09:05;;;;;;;6.17;4.20;;;;;;;23.83;58.54;95673.50;5009281;28;24886;-74
2021/09/09 10:11:31;;;;;;;9.65;4.15;;;;;;;23.89;58.83;95669.31;5010308;28;24490;-74
2021/09/09 10:13:58;;;;;;;4.43;3.90;;;;;;;23.93;57.61;95675.88;5010467;28;24787;-74
2021/09/09 10:16:27;;;;;;;6.00;3.65;;;;;;;23.77;57.62;95673.38;5010263;28;24420;-75
2021/09/09 10:18:52;;;;;;;5.40;3.92;;;;;;;23.51;60.47;95674.59;5027743;28;24412;-76
2021/09/09 10:21:47;;;;;;;7.10;3.77;;;;;;;23.36;61.69;95673.72;5030246;28;24399;-76
2021/09/09 10:24:18;;;;;;;9.65;3.78;;;;;;;23.24;62.35;95673.31;5025318;28;24434;-76
2021/09/09 10:26:45;;;;;;;5.50;3.72;;;;;;;23.22;63.50;95671.88;5030004;28;24495;-76
2021/09/09 10:29:41;;;;;;;6.50;3.10;;;;;;;22.98;64.35;95667.56;5012430;28;24837;-76
2021/09/09 10:32:08;;;;;;;5.82;3.50;;;;;;;23.04;64.56;95667.69;5029953;28;24474;-76
2021/09/09 10:34:33;;;;;;;4.55;3.33;;;;;;;23.04;64.82;95664.25;5029886;28;24460;-76
2021/09/09 10:36:58;;;;;;;4.93;3.70;;;;;;;23.09;63.03;95665.34;5012101;28;24412;-76
2021/09/09 10:39:35;;;;;;;7.67;3.30;;;;;;;23.18;63.14;95666.13;5030452;28;24478;-75
2021/09/09 10:42:38;;;;;;;6.37;3.77;;;;;;;23.17;61.14;95664.47;5032515;28;24403;-75
2021/09/09 10:45:06;;;;;;;4.63;3.15;;;;;;;23.40;59.80;95664.47;5033606;28;24483;-76
2021/09/09 10:47:48;;;;;;;4.18;3.50;;;;;;;23.58;59.47;95662.31;5031872;28;24462;-76
2021/09/09 10:50:14;;;;;;;4.10;3.38;;;;;;;23.86;58.10;95661.75;5045367;28;24445;-75
2021/09/09 10:52:59;;;;;;;5.17;3.90;;;;;;;23.89;59.14;95661.38;5053312;28;24427;-75
2021/09/09 10:55:26;;;;;;;5.72;3.70;;;;;;;23.89;58.75;95656.91;5051953;28;24465;-75
2021/09/09 10:58:30;;;;;;;6.70;3.73;;;;;;;23.95;60.12;95655.34;5053303;28;24495;-75
2021/09/09 11:00:58;;;;;;;4.25;3.55;;;;;;;23.88;58.50;95652.63;5034916;28;24549;-74
2021/09/09 11:03:46;;;;;;;4.55;3.85;;;;;;;24.10;59.08;95655.34;5053316;28;24949;-74
2021/09/09 11:06:12;;;;;;;7.22;3.50;;;;;;;23.96;58.19;95656.19;5053149;28;24449;-75
2021/09/09 11:08:40;;;;;;;5.40;4.00;;;;;;;23.82;58.24;95657.81;5031700;28;24458;-74
2021/09/09 11:11:08;;;;;;;4.72;3.40;;;;;;;23.77;58.32;95654.88;5033292;28;24942;-75
2021/09/09 11:13:36;;;;;;;5.70;4.00;;;;;;;23.85;58.25;95652.16;5033066;28;24435;-75
2021/09/09 11:16:17;;;;;;;8.27;5.00;;;;;;;24.03;56.97;95651.78;5031713;28;24428;-75
2021/09/09 11:18:43;;;;;;;5.85;4.35;;;;;;;24.10;55.90;95647.41;5015212;28;24817;-75
2021/09/09 11:21:08;;;;;;;5.10;3.80;;;;;;;24.19;56.00;95648.16;5031910;28;24400;-75
2021/09/09 11:23:35;;;;;;;5.43;3.90;;;;;;;24.46;56.97;95651.97;5033027;28;24477;-75
2021/09/09 11:26:12;;;;;;;7.07;4.68;;;;;;;24.69;54.47;95650.00;5032892;28;24450;-75